createdAt,value
2022-11-19T00:05:15.654Z,77.76
2022-11-19T00:15:17.293Z,77.90
2022-11-19T00:25:20.799Z,78.27
2022-11-19T00:35:22.554Z,77.50
2022-11-19T00:45:24.214Z,77.15
2022-11-19T00:55:25.957Z,77.37
2022-11-19T01:05:27.612Z,77.41
2022-11-19T01:15:29.383Z,77.63
2022-11-19T01:25:31.016Z,77.64
2022-11-19T01:35:34.151Z,77.02
2022-11-19T01:45:40.025Z,76.96
2022-11-19T01:55:43.740Z,77.22
2022-11-19T02:05:46.318Z,77.32
2022-11-19T02:15:56.934Z,77.32
2022-11-19T02:26:13.822Z,76.86
2022-11-19T02:36:21.063Z,76.64
2022-11-19T02:46:23.825Z,77.23
2022-11-19T02:56:49.190Z,78.05
2022-11-19T03:06:50.944Z,79.37
2022-11-19T03:17:08.988Z,80.50
2022-11-19T03:27:24.454Z,80.83
2022-11-19T03:37:30.397Z,80.66
2022-11-19T03:47:36.622Z,80.54
2022-11-19T03:57:38.739Z,80.38
2022-11-19T04:07:40.516Z,80.57
2022-11-19T04:17:42.314Z,80.77
2022-11-19T04:27:46.789Z,83.06
2022-11-19T04:37:48.737Z,84.05
2022-11-19T04:47:50.365Z,84.44
2022-11-19T04:57:52.806Z,84.87
2022-11-19T05:07:54.614Z,85.09
2022-11-19T05:17:56.378Z,86.02
2022-11-19T05:27:58.106Z,86.06
2022-11-19T05:38:00.061Z,86.93
2022-11-19T05:48:01.776Z,87.62
2022-11-19T05:58:03.607Z,87.85
2022-11-19T06:08:05.885Z,88.85
2022-11-19T06:18:07.591Z,89.45
2022-11-19T06:28:09.325Z,89.60
2022-11-19T06:38:11.185Z,89.28
2022-11-19T06:48:12.798Z,89.54
2022-11-19T06:58:14.920Z,90.04
2022-11-19T07:08:16.720Z,90.26
2022-11-19T07:18:18.351Z,90.69
2022-11-19T07:28:19.951Z,90.68
2022-11-19T07:38:21.640Z,90.54
2022-11-19T07:48:23.325Z,91.47
2022-11-19T07:58:24.959Z,91.63
2022-11-19T08:08:26.670Z,91.60
2022-11-19T08:18:31.348Z,90.62
2022-11-19T08:28:34.350Z,89.80
2022-11-19T08:38:38.778Z,89.68
2022-11-19T08:48:40.911Z,87.86
2022-11-19T08:58:42.749Z,86.67
2022-11-19T09:08:45.356Z,87.36
2022-11-19T09:18:47.182Z,86.50
2022-11-19T09:28:54.571Z,85.17
2022-11-19T09:38:57.504Z,84.31
2022-11-19T09:49:05.384Z,83.58
2022-11-19T09:59:38.025Z,83.90
2022-11-19T10:10:12.686Z,83.33
2022-11-19T10:20:28.183Z,83.13
2022-11-19T10:30:30.751Z,82.00
2022-11-19T10:40:48.276Z,80.71
2022-11-19T10:50:50.962Z,80.58
2022-11-19T11:00:55.146Z,79.98
2022-11-19T11:10:58.299Z,79.77
2022-11-19T11:21:00.128Z,79.92
2022-11-19T11:31:03.061Z,78.36
2022-11-19T11:41:53.729Z,77.81
2022-11-19T11:51:41.488Z,77.51
2022-11-19T12:01:56.445Z,76.47
2022-11-19T12:12:06.348Z,76.21
2022-11-19T12:22:32.627Z,75.50
2022-11-19T12:32:53.930Z,74.80
2022-11-19T12:43:17.350Z,74.52
2022-11-19T12:53:56.346Z,73.85
2022-11-19T13:04:04.929Z,73.78
2022-11-19T13:14:34.965Z,73.10
2022-11-19T13:24:52.645Z,72.92
2022-11-19T13:35:13.344Z,73.67
2022-11-19T13:45:16.856Z,73.85
2022-11-19T13:55:34.745Z,74.52
2022-11-19T14:05:51.623Z,74.44
2022-11-19T14:16:51.550Z,74.27
2022-11-19T14:27:01.915Z,74.32
2022-11-19T14:37:15.155Z,74.32
2022-11-19T14:47:23.834Z,74.19
2022-11-19T14:57:38.915Z,74.25
2022-11-19T15:08:15.883Z,74.80
2022-11-19T15:18:41.112Z,75.32
2022-11-19T15:28:54.423Z,76.26
2022-11-19T15:39:35.419Z,77.38
2022-11-19T15:49:44.839Z,77.96
2022-11-19T15:59:53.167Z,78.47
2022-11-19T16:09:56.396Z,79.18
2022-11-19T16:20:10.668Z,79.22
2022-11-19T16:30:21.795Z,78.90
2022-11-19T16:40:24.274Z,78.75
2022-11-19T16:50:43.795Z,78.68
2022-11-19T17:00:52.366Z,78.98
2022-11-19T17:11:33.019Z,79.27
2022-11-19T17:21:35.469Z,79.49
2022-11-19T17:31:37.292Z,79.60
2022-11-19T17:41:58.243Z,79.61
2022-11-19T17:51:59.892Z,79.82
2022-11-19T18:02:01.674Z,79.50
2022-11-19T18:12:05.804Z,79.94
2022-11-19T18:22:12.832Z,80.47
2022-11-19T18:32:16.176Z,80.78
2022-11-19T18:42:17.856Z,80.87
2022-11-19T18:52:19.867Z,81.39
2022-11-19T19:02:21.591Z,81.24
2022-11-19T19:12:23.582Z,81.30
2022-11-19T19:22:25.212Z,81.20
2022-11-19T19:32:27.507Z,81.02
2022-11-19T19:42:29.369Z,80.39
2022-11-19T19:52:31.159Z,79.77
2022-11-19T20:02:33.226Z,79.08
2022-11-19T20:12:54.202Z,79.23
2022-11-19T20:22:57.208Z,78.93
2022-11-19T20:32:59.243Z,79.00
2022-11-19T20:43:19.901Z,79.30
2022-11-19T20:53:24.345Z,79.73
2022-11-19T21:03:26.293Z,79.82
2022-11-19T21:13:28.243Z,79.68
2022-11-19T21:23:30.492Z,79.94
2022-11-19T21:33:32.250Z,79.58
2022-11-19T21:44:07.916Z,79.31
2022-11-19T21:54:09.759Z,79.06
2022-11-19T22:04:14.978Z,78.62
2022-11-19T22:14:16.786Z,79.10
2022-11-19T22:24:18.761Z,79.44
2022-11-19T22:34:20.456Z,79.66
2022-11-19T22:44:22.457Z,80.02
2022-11-19T22:54:25.301Z,80.28
2022-11-19T23:04:28.964Z,80.53
2022-11-19T23:14:31.000Z,80.52
2022-11-19T23:24:32.982Z,80.31
2022-11-19T23:34:34.754Z,80.41
2022-11-19T23:44:36.425Z,80.03
2022-11-19T23:54:38.221Z,80.13
